sensor_id;sensor_type;location;lat;lon;timestamp;pressure;altitude;pressure_sealevel;temperature;humidity
60319;BME280;46163;52.306;5.634;2023-02-23T00:01:40;101133.72;;;16.73;56.96
60319;BME280;46163;52.306;5.634;2023-02-23T00:04:06;101145.50;;;16.72;57.03
60319;BME280;46163;52.306;5.634;2023-02-23T00:06:34;101146.56;;;16.71;57.09
60319;BME280;46163;52.306;5.634;2023-02-23T00:09:01;101139.63;;;16.63;57.32
60319;BME280;46163;52.306;5.634;2023-02-23T00:11:27;101149.25;;;16.71;57.17
60319;BME280;46163;52.306;5.634;2023-02-23T00:13:53;101147.88;;;16.69;57.06
60319;BME280;46163;52.306;5.634;2023-02-23T00:16:24;101148.28;;;16.65;57.14
60319;BME280;46163;52.306;5.634;2023-02-23T00:18:53;101146.66;;;16.64;57.20
60319;BME280;46163;52.306;5.634;2023-02-23T00:21:28;101150.63;;;16.62;57.44
60319;BME280;46163;52.306;5.634;2023-02-23T00:24:02;101154.59;;;16.59;57.08
60319;BME280;46163;52.306;5.634;2023-02-23T00:26:30;101139.75;;;16.57;56.89
60319;BME280;46163;52.306;5.634;2023-02-23T00:29:01;101145.13;;;16.57;56.67
60319;BME280;46163;52.306;5.634;2023-02-23T00:31:27;101141.28;;;16.53;57.12
60319;BME280;46163;52.306;5.634;2023-02-23T00:33:55;101143.97;;;16.53;56.89
60319;BME280;46163;52.306;5.634;2023-02-23T00:36:24;101148.75;;;16.51;56.97
60319;BME280;46163;52.306;5.634;2023-02-23T00:38:54;101140.91;;;16.49;57.06
60319;BME280;46163;52.306;5.634;2023-02-23T00:41:20;101142.78;;;16.49;56.97
60319;BME280;46163;52.306;5.634;2023-02-23T00:43:49;101148.38;;;16.47;56.98
60319;BME280;46163;52.306;5.634;2023-02-23T00:46:18;101147.81;;;16.45;56.90
60319;BME280;46163;52.306;5.634;2023-02-23T00:48:46;101144.53;;;16.43;56.83
60319;BME280;46163;52.306;5.634;2023-02-23T00:51:13;101152.81;;;16.42;56.93
60319;BME280;46163;52.306;5.634;2023-02-23T00:53:40;101142.06;;;16.42;56.78
60319;BME280;46163;52.306;5.634;2023-02-23T00:56:07;101138.78;;;16.39;57.21
60319;BME280;46163;52.306;5.634;2023-02-23T00:58:33;101140.66;;;16.39;56.83
60319;BME280;46163;52.306;5.634;2023-02-23T01:00:59;101142.53;;;16.38;56.88
60319;BME280;46163;52.306;5.634;2023-02-23T01:03:25;101143.59;;;16.37;56.95
60319;BME280;46163;52.306;5.634;2023-02-23T01:05:51;101140.09;;;16.37;57.09
60319;BME280;46163;52.306;5.634;2023-02-23T01:08:20;101143.00;;;16.35;56.82
60319;BME280;46163;52.306;5.634;2023-02-23T01:10:46;101143.00;;;16.35;56.71
60319;BME280;46163;52.306;5.634;2023-02-23T01:13:20;101140.56;;;16.34;56.86
60319;BME280;46163;52.306;5.634;2023-02-23T01:15:47;101138.91;;;16.33;56.83
60319;BME280;46163;52.306;5.634;2023-02-23T01:18:18;101148.81;;;16.32;56.88
60319;BME280;46163;52.306;5.634;2023-02-23T01:20:44;101139.13;;;16.31;56.83
60319;BME280;46163;52.306;5.634;2023-02-23T01:23:12;101143.69;;;16.31;56.70
60319;BME280;46163;52.306;5.634;2023-02-23T01:25:42;101141.22;;;16.29;56.75
60319;BME280;46163;52.306;5.634;2023-02-23T01:28:11;101137.16;;;16.27;56.81
60319;BME280;46163;52.306;5.634;2023-02-23T01:30:38;101144.41;;;16.26;56.70
60319;BME280;46163;52.306;5.634;2023-02-23T01:33:04;101139.25;;;16.25;56.96
60319;BME280;46163;52.306;5.634;2023-02-23T01:35:30;101145.66;;;16.24;56.77
60319;BME280;46163;52.306;5.634;2023-02-23T01:37:57;101137.59;;;16.24;56.69
60319;BME280;46163;52.306;5.634;2023-02-23T01:40:24;101138.66;;;16.23;56.74
60319;BME280;46163;52.306;5.634;2023-02-23T01:43:09;101135.16;;;16.22;56.78
60319;BME280;46163;52.306;5.634;2023-02-23T01:45:37;101146.94;;;16.21;56.89
60319;BME280;46163;52.306;5.634;2023-02-23T01:48:17;101139.94;;;16.20;56.62
60319;BME280;46163;52.306;5.634;2023-02-23T01:50:52;101142.03;;;16.18;56.81
60319;BME280;46163;52.306;5.634;2023-02-23T01:53:18;101147.41;;;16.18;56.76
60319;BME280;46163;52.306;5.634;2023-02-23T01:55:51;101142.03;;;16.18;56.63
60319;BME280;46163;52.306;5.634;2023-02-23T01:58:20;101146.59;;;16.18;56.67
60319;BME280;46163;52.306;5.634;2023-02-23T02:00:50;101145.97;;;16.16;56.58
60319;BME280;46163;52.306;5.634;2023-02-23T02:03:25;101142.47;;;16.15;56.50
60319;BME280;46163;52.306;5.634;2023-02-23T02:05:53;101149.13;;;16.13;56.56
60319;BME280;46163;52.306;5.634;2023-02-23T02:08:19;101144.81;;;16.11;56.70
60319;BME280;46163;52.306;5.634;2023-02-23T02:10:48;101151.00;;;16.12;56.68
60319;BME280;46163;52.306;5.634;2023-02-23T02:13:20;101141.31;;;16.11;56.73
60319;BME280;46163;52.306;5.634;2023-02-23T02:18:37;101147.59;;;16.05;56.53
60319;BME280;46163;52.306;5.634;2023-02-23T02:30:26;101157.28;;;16.06;56.41
60319;BME280;46163;52.306;5.634;2023-02-23T02:36:07;101148.66;;;16.04;56.44
60319;BME280;46163;52.306;5.634;2023-02-23T02:42:01;101139.19;;;16.01;56.39
60319;BME280;46163;52.306;5.634;2023-02-23T02:45:00;101146.44;;;16.01;56.67
60319;BME280;46163;52.306;5.634;2023-02-23T02:47:57;101142.09;;;16.00;56.57
60319;BME280;46163;52.306;5.634;2023-02-23T02:50:21;101138.59;;;15.99;56.54
60319;BME280;46163;52.306;5.634;2023-02-23T02:53:07;101136.13;;;15.98;56.40
60319;BME280;46163;52.306;5.634;2023-02-23T02:55:36;101133.44;;;15.98;56.64
60319;BME280;46163;52.306;5.634;2023-02-23T02:58:05;101146.28;;;15.96;56.59
60319;BME280;46163;52.306;5.634;2023-02-23T03:00:38;101140.91;;;15.96;56.35
60319;BME280;46163;52.306;5.634;2023-02-23T03:03:51;101146.28;;;15.96;56.33
60319;BME280;46163;52.306;5.634;2023-02-23T03:06:51;101144.06;;;15.93;56.85
60319;BME280;46163;52.306;5.634;2023-02-23T03:09:41;101142.19;;;15.93;56.36
60319;BME280;46163;52.306;5.634;2023-02-23T03:15:30;101136.25;;;15.91;56.21
60319;BME280;46163;52.306;5.634;2023-02-23T03:18:46;101147.81;;;15.92;56.26
60319;BME280;46163;52.306;5.634;2023-02-23T03:21:39;101142.66;;;15.90;56.41
60319;BME280;46163;52.306;5.634;2023-02-23T03:27:22;101139.00;;;15.85;56.42
60319;BME280;46163;52.306;5.634;2023-02-23T03:30:24;101142.88;;;15.89;56.34
60319;BME280;46163;52.306;5.634;2023-02-23T03:33:17;101145.78;;;15.87;56.20
60319;BME280;46163;52.306;5.634;2023-02-23T03:36:09;101145.78;;;15.87;56.20
60319;BME280;46163;52.306;5.634;2023-02-23T03:41:45;101151.38;;;15.86;56.16
60319;BME280;46163;52.306;5.634;2023-02-23T03:44:40;101152.66;;;15.83;56.21
60319;BME280;46163;52.306;5.634;2023-02-23T03:47:29;101151.03;;;15.82;56.22
60319;BME280;46163;52.306;5.634;2023-02-23T03:50:21;101160.72;;;15.83;56.27
60319;BME280;46163;52.306;5.634;2023-02-23T03:53:09;101172.28;;;15.83;56.18
60319;BME280;46163;52.306;5.634;2023-02-23T03:55:56;101169.00;;;15.81;56.23
60319;BME280;46163;52.306;5.634;2023-02-23T03:58:49;101170.25;;;15.79;56.23
60319;BME280;46163;52.306;5.634;2023-02-23T04:01:36;101171.88;;;15.80;56.20
60319;BME280;46163;52.306;5.634;2023-02-23T04:04:21;101171.06;;;15.79;56.21
60319;BME280;46163;52.306;5.634;2023-02-23T04:07:07;101184.50;;;15.79;56.27
60319;BME280;46163;52.306;5.634;2023-02-23T04:09:52;101174.81;;;15.78;56.11
60319;BME280;46163;52.306;5.634;2023-02-23T04:12:43;101176.66;;;15.78;56.28
60319;BME280;46163;52.306;5.634;2023-02-23T04:15:35;101175.84;;;15.77;56.04
60319;BME280;46163;52.306;5.634;2023-02-23T04:18:03;101174.22;;;15.76;56.07
60319;BME280;46163;52.306;5.634;2023-02-23T04:20:29;101182.28;;;15.76;56.00
60319;BME280;46163;52.306;5.634;2023-02-23T04:22:54;101181.69;;;15.74;56.24
60319;BME280;46163;52.306;5.634;2023-02-23T04:25:20;101180.63;;;15.75;56.06
60319;BME280;46163;52.306;5.634;2023-02-23T04:27:49;101186.22;;;15.74;56.25
60319;BME280;46163;52.306;5.634;2023-02-23T04:30:14;101185.19;;;15.75;56.06
60319;BME280;46163;52.306;5.634;2023-02-23T04:32:40;101182.72;;;15.73;56.19
60319;BME280;46163;52.306;5.634;2023-02-23T04:35:06;101178.63;;;15.71;56.16
60319;BME280;46163;52.306;5.634;2023-02-23T04:37:32;101184.81;;;15.71;56.08
60319;BME280;46163;52.306;5.634;2023-02-23T04:40:00;101185.63;;;15.72;56.32
60319;BME280;46163;52.306;5.634;2023-02-23T04:42:25;101186.00;;;15.75;56.18
60319;BME280;46163;52.306;5.634;2023-02-23T04:44:51;101184.63;;;15.85;55.82
60319;BME280;46163;52.306;5.634;2023-02-23T04:47:19;101184.19;;;15.88;55.92
60319;BME280;46163;52.306;5.634;2023-02-23T04:49:44;101188.88;;;15.92;55.85
60319;BME280;46163;52.306;5.634;2023-02-23T04:52:10;101188.56;;;16.00;55.56
60319;BME280;46163;52.306;5.634;2023-02-23T04:54:39;101188.81;;;16.10;55.57
60319;BME280;46163;52.306;5.634;2023-02-23T04:57:05;101183.81;;;16.14;55.33
60319;BME280;46163;52.306;5.634;2023-02-23T04:59:32;101193.41;;;16.22;55.43
60319;BME280;46163;52.306;5.634;2023-02-23T05:01:57;101188.53;;;16.30;55.10
60319;BME280;46163;52.306;5.634;2023-02-23T05:04:23;101191.13;;;16.37;54.90
60319;BME280;46163;52.306;5.634;2023-02-23T05:06:49;101188.91;;;16.46;54.68
60319;BME280;46163;52.306;5.634;2023-02-23T05:09:14;101195.81;;;16.53;54.55
60319;BME280;46163;52.306;5.634;2023-02-23T05:11:40;101184.25;;;16.53;54.55
60319;BME280;46163;52.306;5.634;2023-02-23T05:14:05;101191.03;;;16.67;54.01
60319;BME280;46163;52.306;5.634;2023-02-23T05:16:31;101204.97;;;16.76;54.11
60319;BME280;46163;52.306;5.634;2023-02-23T05:18:57;101206.50;;;16.83;54.12
60319;BME280;46163;52.306;5.634;2023-02-23T05:21:22;101213.91;;;16.88;53.85
60319;BME280;46163;52.306;5.634;2023-02-23T05:23:49;101206.75;;;16.93;53.75
60319;BME280;46163;52.306;5.634;2023-02-23T05:26:15;101203.94;;;17.00;53.50
60319;BME280;46163;52.306;5.634;2023-02-23T05:28:41;101207.09;;;17.09;53.37
60319;BME280;46163;52.306;5.634;2023-02-23T05:31:08;101211.19;;;17.11;53.13
60319;BME280;46163;52.306;5.634;2023-02-23T05:33:34;101215.88;;;17.16;53.24
60319;BME280;46163;52.306;5.634;2023-02-23T05:36:09;101217.88;;;17.20;53.05
60319;BME280;46163;52.306;5.634;2023-02-23T05:38:38;101221.94;;;17.23;52.97
60319;BME280;46163;52.306;5.634;2023-02-23T05:41:04;101218.53;;;17.28;52.86
60319;BME280;46163;52.306;5.634;2023-02-23T05:43:30;101209.56;;;17.22;52.72
60319;BME280;46163;52.306;5.634;2023-02-23T05:45:55;101216.78;;;17.33;52.76
60319;BME280;46163;52.306;5.634;2023-02-23T05:48:21;101221.69;;;17.36;52.69
60319;BME280;46163;52.306;5.634;2023-02-23T05:50:46;101227.69;;;17.38;52.51
60319;BME280;46163;52.306;5.634;2023-02-23T05:53:12;101217.25;;;17.42;52.76
60319;BME280;46163;52.306;5.634;2023-02-23T05:55:37;101225.06;;;17.43;52.32
60319;BME280;46163;52.306;5.634;2023-02-23T05:58:03;101218.41;;;17.46;52.44
60319;BME280;46163;52.306;5.634;2023-02-23T06:00:28;101224.13;;;17.49;52.25
60319;BME280;46163;52.306;5.634;2023-02-23T06:02:54;101225.53;;;17.52;52.39
60319;BME280;46163;52.306;5.634;2023-02-23T06:05:19;101226.91;;;17.55;52.21
60319;BME280;46163;52.306;5.634;2023-02-23T06:07:45;101224.84;;;17.57;52.21
60319;BME280;46163;52.306;5.634;2023-02-23T06:10:11;101235.94;;;17.60;52.40
60319;BME280;46163;52.306;5.634;2023-02-23T06:12:36;101233.00;;;17.62;52.34
60319;BME280;46163;52.306;5.634;2023-02-23T06:15:02;101230.06;;;17.63;52.58
60319;BME280;46163;52.306;5.634;2023-02-23T06:17:28;101228.22;;;17.64;52.47
60319;BME280;46163;52.306;5.634;2023-02-23T06:19:53;101231.72;;;17.64;52.44
60319;BME280;46163;52.306;5.634;2023-02-23T06:22:19;101235.81;;;17.67;52.48
60319;BME280;46163;52.306;5.634;2023-02-23T06:24:44;101237.44;;;17.68;52.43
60319;BME280;46163;52.306;5.634;2023-02-23T06:27:10;101239.06;;;17.69;52.37
60319;BME280;46163;52.306;5.634;2023-02-23T06:29:36;101239.88;;;17.69;52.80
60319;BME280;46163;52.306;5.634;2023-02-23T06:32:03;101245.06;;;17.71;52.79
60319;BME280;46163;52.306;5.634;2023-02-23T06:34:29;101244.44;;;17.69;52.63
60319;BME280;46163;52.306;5.634;2023-02-23T06:36:54;101242.97;;;17.73;53.01
60319;BME280;46163;52.306;5.634;2023-02-23T06:39:20;101251.63;;;17.75;53.24
60319;BME280;46163;52.306;5.634;2023-02-23T06:41:47;101253.25;;;17.76;53.29
60319;BME280;46163;52.306;5.634;2023-02-23T06:44:12;101250.56;;;17.76;53.27
60319;BME280;46163;52.306;5.634;2023-02-23T06:46:38;101250.06;;;17.79;53.09
60319;BME280;46163;52.306;5.634;2023-02-23T06:49:03;101257.09;;;17.80;53.30
60319;BME280;46163;52.306;5.634;2023-02-23T06:51:29;101255.00;;;17.82;53.26
60319;BME280;46163;52.306;5.634;2023-02-23T06:53:57;101257.69;;;17.82;53.01
60319;BME280;46163;52.306;5.634;2023-02-23T06:56:23;101252.31;;;17.82;53.29
60319;BME280;46163;52.306;5.634;2023-02-23T06:58:48;101250.44;;;17.83;53.38
60319;BME280;46163;52.306;5.634;2023-02-23T07:01:14;101262.59;;;17.85;53.40
60319;BME280;46163;52.306;5.634;2023-02-23T07:03:40;101267.72;;;17.87;53.64
60319;BME280;46163;52.306;5.634;2023-02-23T07:06:06;101274.75;;;17.88;53.67
60319;BME280;46163;52.306;5.634;2023-02-23T07:08:33;101273.47;;;17.90;53.80
60319;BME280;46163;52.306;5.634;2023-02-23T07:11:13;101283.75;;;17.93;53.69
60319;BME280;46163;52.306;5.634;2023-02-23T07:13:40;101284.56;;;17.94;53.77
60319;BME280;46163;52.306;5.634;2023-02-23T07:16:07;101286.44;;;17.93;53.43
60319;BME280;46163;52.306;5.634;2023-02-23T07:18:33;101283.75;;;17.93;53.49
60319;BME280;46163;52.306;5.634;2023-02-23T07:20:59;101291.84;;;17.93;53.47
60319;BME280;46163;52.306;5.634;2023-02-23T07:23:24;101293.72;;;17.93;53.41
60319;BME280;46163;52.306;5.634;2023-02-23T07:25:51;101302.59;;;17.93;53.57
60319;BME280;46163;52.306;5.634;2023-02-23T07:28:16;101307.41;;;17.91;53.21
60319;BME280;46163;52.306;5.634;2023-02-23T07:30:42;101311.19;;;17.90;53.30
60319;BME280;46163;52.306;5.634;2023-02-23T07:33:07;101307.88;;;17.88;53.30
60319;BME280;46163;52.306;5.634;2023-02-23T07:35:38;101315.94;;;17.88;53.44
60319;BME280;46163;52.306;5.634;2023-02-23T07:38:04;101318.66;;;17.88;53.67
60319;BME280;46163;52.306;5.634;2023-02-23T07:40:31;101320.75;;;17.86;53.39
60319;BME280;46163;52.306;5.634;2023-02-23T07:42:57;101319.94;;;17.86;53.73
60319;BME280;46163;52.306;5.634;2023-02-23T07:45:24;101324.75;;;17.84;53.93
60319;BME280;46163;52.306;5.634;2023-02-23T07:47:49;101328.28;;;17.84;54.04
60319;BME280;46163;52.306;5.634;2023-02-23T07:50:15;101325.81;;;17.83;53.53
60319;BME280;46163;52.306;5.634;2023-02-23T07:52:41;101329.56;;;17.82;53.96
60319;BME280;46163;52.306;5.634;2023-02-23T07:55:08;101328.75;;;17.81;54.09
60319;BME280;46163;52.306;5.634;2023-02-23T07:57:34;101333.06;;;17.82;53.85
60319;BME280;46163;52.306;5.634;2023-02-23T08:00:00;101334.13;;;17.81;53.96
60319;BME280;46163;52.306;5.634;2023-02-23T08:02:26;101334.13;;;17.81;53.67
60319;BME280;46163;52.306;5.634;2023-02-23T08:04:54;101335.16;;;17.80;53.73
60319;BME280;46163;52.306;5.634;2023-02-23T08:07:20;101338.66;;;17.80;53.77
60319;BME280;46163;52.306;5.634;2023-02-23T08:09:49;101337.03;;;17.79;53.63
60319;BME280;46163;52.306;5.634;2023-02-23T08:12:15;101338.47;;;17.82;53.75
60319;BME280;46163;52.306;5.634;2023-02-23T08:14:41;101332.25;;;17.82;53.64
60319;BME280;46163;52.306;5.634;2023-02-23T08:17:07;101344.41;;;17.84;53.54
60319;BME280;46163;52.306;5.634;2023-02-23T08:19:32;101342.78;;;17.83;53.40
60319;BME280;46163;52.306;5.634;2023-02-23T08:21:59;101351.44;;;17.85;53.56
60319;BME280;46163;52.306;5.634;2023-02-23T08:24:25;101353.06;;;17.86;53.56
60319;BME280;46163;52.306;5.634;2023-02-23T08:26:51;101361.97;;;17.87;53.44
60319;BME280;46163;52.306;5.634;2023-02-23T08:29:17;101356.34;;;17.88;53.24
60319;BME280;46163;52.306;5.634;2023-02-23T08:31:43;101359.03;;;17.88;53.25
60319;BME280;46163;52.306;5.634;2023-02-23T08:34:09;101359.63;;;17.90;53.48
60319;BME280;46163;52.306;5.634;2023-02-23T08:36:35;101356.94;;;17.90;53.27
60319;BME280;46163;52.306;5.634;2023-02-23T08:39:00;101361.72;;;17.88;53.27
60319;BME280;46163;52.306;5.634;2023-02-23T08:41:26;101365.84;;;17.91;53.08
60319;BME280;46163;52.306;5.634;2023-02-23T08:43:52;101366.66;;;17.91;53.34
60319;BME280;46163;52.306;5.634;2023-02-23T08:46:18;101372.38;;;17.95;53.18
60319;BME280;46163;52.306;5.634;2023-02-23T08:48:45;101366.19;;;17.94;53.04
60319;BME280;46163;52.306;5.634;2023-02-23T08:51:12;101380.22;;;17.96;52.80
60319;BME280;46163;52.306;5.634;2023-02-23T08:53:39;101366.66;;;17.91;53.09
60319;BME280;46163;52.306;5.634;2023-02-23T08:56:06;101375.66;;;17.97;52.92
60319;BME280;46163;52.306;5.634;2023-02-23T08:58:34;101375.44;;;17.98;52.98
60319;BME280;46163;52.306;5.634;2023-02-23T09:01:00;101374.38;;;17.99;52.86
60319;BME280;46163;52.306;5.634;2023-02-23T09:03:27;101376.81;;;18.01;52.84
60319;BME280;46163;52.306;5.634;2023-02-23T09:05:56;101378.47;;;18.02;52.71
60319;BME280;46163;52.306;5.634;2023-02-23T09:08:22;101377.66;;;18.01;52.71
60319;BME280;46163;52.306;5.634;2023-02-23T09:10:47;101380.09;;;18.03;52.55
60319;BME280;46163;52.306;5.634;2023-02-23T09:13:13;101380.69;;;18.05;52.50
60319;BME280;46163;52.306;5.634;2023-02-23T09:15:40;101388.75;;;18.05;52.62
60319;BME280;46163;52.306;5.634;2023-02-23T09:18:06;101395.78;;;18.06;52.50
60319;BME280;46163;52.306;5.634;2023-02-23T09:20:33;101392.50;;;18.04;52.23
60319;BME280;46163;52.306;5.634;2023-02-23T09:22:58;101397.88;;;18.04;52.59
60319;BME280;46163;52.306;5.634;2023-02-23T09:25:24;101392.25;;;18.05;52.39
60319;BME280;46163;52.306;5.634;2023-02-23T09:27:51;101397.66;;;18.05;52.43
60319;BME280;46163;52.306;5.634;2023-02-23T09:30:18;101399.53;;;18.05;52.28
60319;BME280;46163;52.306;5.634;2023-02-23T09:32:49;101398.72;;;18.04;52.58
60319;BME280;46163;52.306;5.634;2023-02-23T09:35:16;101405.16;;;18.03;52.29
60319;BME280;46163;52.306;5.634;2023-02-23T09:37:43;101403.53;;;18.02;52.23
60319;BME280;46163;52.306;5.634;2023-02-23T09:40:14;101416.97;;;18.02;52.34
60319;BME280;46163;52.306;5.634;2023-02-23T09:48:13;101414.78;;;17.99;52.56
60319;BME280;46163;52.306;5.634;2023-02-23T09:50:43;101417.47;;;17.99;52.51
60319;BME280;46163;52.306;5.634;2023-02-23T09:53:34;101414.78;;;17.99;52.45
60319;BME280;46163;52.306;5.634;2023-02-23T09:56:06;101407.75;;;17.98;52.39
60319;BME280;46163;52.306;5.634;2023-02-23T09:58:35;101411.25;;;17.99;52.43
60319;BME280;46163;52.306;5.634;2023-02-23T10:03:41;101409.16;;;18.01;52.25
60319;BME280;46163;52.306;5.634;2023-02-23T10:06:15;101411.03;;;18.00;52.40
60319;BME280;46163;52.306;5.634;2023-02-23T10:11:26;101410.53;;;18.03;52.19
60319;BME280;46163;52.306;5.634;2023-02-23T10:22:14;101423.75;;;18.05;52.30
60319;BME280;46163;52.306;5.634;2023-02-23T10:25:09;101420.25;;;18.04;52.33
60319;BME280;46163;52.306;5.634;2023-02-23T10:27:43;101418.97;;;18.07;52.58
60319;BME280;46163;52.306;5.634;2023-02-23T10:30:18;101432.22;;;18.08;52.56
60319;BME280;46163;52.306;5.634;2023-02-23T10:35:13;101433.03;;;18.09;52.65
60319;BME280;46163;52.306;5.634;2023-02-23T10:37:39;101440.06;;;18.10;52.79
60319;BME280;46163;52.306;5.634;2023-02-23T10:40:06;101431.16;;;18.10;52.79
60319;BME280;46163;52.306;5.634;2023-02-23T10:42:32;101430.91;;;18.11;52.80
60319;BME280;46163;52.306;5.634;2023-02-23T10:44:58;101429.03;;;18.12;52.72
60319;BME280;46163;52.306;5.634;2023-02-23T10:47:31;101443.31;;;18.12;52.92
60319;BME280;46163;52.306;5.634;2023-02-23T10:49:59;101449.53;;;18.13;52.79
60319;BME280;46163;52.306;5.634;2023-02-23T10:52:43;101449.53;;;18.13;53.10
60319;BME280;46163;52.306;5.634;2023-02-23T10:58:13;101449.75;;;18.11;53.44
60319;BME280;46163;52.306;5.634;2023-02-23T11:01:02;101450.00;;;18.10;53.44
60319;BME280;46163;52.306;5.634;2023-02-23T11:03:33;101458.09;;;18.10;53.82
60319;BME280;46163;52.306;5.634;2023-02-23T11:06:00;101448.38;;;18.08;54.25
60319;BME280;46163;52.306;5.634;2023-02-23T11:08:36;101453.53;;;18.10;54.31
60319;BME280;46163;52.306;5.634;2023-02-23T11:11:28;101448.13;;;18.10;54.74
60319;BME280;46163;52.306;5.634;2023-02-23T11:13:55;101444.38;;;18.11;54.80
60319;BME280;46163;52.306;5.634;2023-02-23T11:16:28;101446.84;;;18.13;54.79
60319;BME280;46163;52.306;5.634;2023-02-23T11:18:58;101444.13;;;18.13;54.38
60319;BME280;46163;52.306;5.634;2023-02-23T11:21:29;101459.25;;;18.14;54.57
60319;BME280;46163;52.306;5.634;2023-02-23T11:24:02;101464.63;;;18.14;54.66
60319;BME280;46163;52.306;5.634;2023-02-23T11:26:39;101464.88;;;18.12;54.54
60319;BME280;46163;52.306;5.634;2023-02-23T11:31:40;101461.59;;;18.10;54.91
60319;BME280;46163;52.306;5.634;2023-02-23T11:34:19;101458.09;;;18.10;55.03
60319;BME280;46163;52.306;5.634;2023-02-23T11:36:57;101459.59;;;18.05;54.81
60319;BME280;46163;52.306;5.634;2023-02-23T11:39:23;101451.50;;;18.05;54.85
60319;BME280;46163;52.306;5.634;2023-02-23T11:45:14;101449.78;;;17.99;55.28
60319;BME280;46163;52.306;5.634;2023-02-23T11:47:44;101454.94;;;18.01;55.02
60319;BME280;46163;52.306;5.634;2023-02-23T11:50:31;101460.56;;;17.99;54.86
60319;BME280;46163;52.306;5.634;2023-02-23T11:53:04;101468.03;;;17.97;55.11
60319;BME280;46163;52.306;5.634;2023-02-23T11:55:32;101462.06;;;17.95;55.33
60319;BME280;46163;52.306;5.634;2023-02-23T12:00:59;101448.72;;;17.89;55.34
60319;BME280;46163;52.306;5.634;2023-02-23T12:03:29;101455.38;;;17.86;55.48
60319;BME280;46163;52.306;5.634;2023-02-23T12:05:57;101464.75;;;17.84;55.35
60319;BME280;46163;52.306;5.634;2023-02-23T12:08:48;101458.81;;;17.82;55.69
60319;BME280;46163;52.306;5.634;2023-02-23T12:11:23;101471.06;;;17.77;55.62
60319;BME280;46163;52.306;5.634;2023-02-23T12:14:00;101472.13;;;17.76;55.66
60319;BME280;46163;52.306;5.634;2023-02-23T12:16:39;101462.03;;;17.72;55.51
60319;BME280;46163;52.306;5.634;2023-02-23T12:19:22;101453.97;;;17.72;55.57
60319;BME280;46163;52.306;5.634;2023-02-23T12:24:43;101462.28;;;17.70;55.70
60319;BME280;46163;52.306;5.634;2023-02-23T12:27:20;101460.84;;;17.68;55.41
60319;BME280;46163;52.306;5.634;2023-02-23T12:35:28;101471.84;;;17.66;55.60
60319;BME280;46163;52.306;5.634;2023-02-23T12:38:01;101461.53;;;17.63;55.63
60319;BME280;46163;52.306;5.634;2023-02-23T12:40:33;101470.47;;;17.64;55.73
60319;BME280;46163;52.306;5.634;2023-02-23T12:43:04;101468.78;;;17.63;55.68
60319;BME280;46163;52.306;5.634;2023-02-23T12:45:47;101473.16;;;17.64;55.70
60319;BME280;46163;52.306;5.634;2023-02-23T12:50:52;101466.22;;;17.68;55.45
60319;BME280;46163;52.306;5.634;2023-02-23T12:53:20;101472.22;;;17.70;55.50
60319;BME280;46163;52.306;5.634;2023-02-23T13:01:52;101468.03;;;17.74;55.71
60319;BME280;46163;52.306;5.634;2023-02-23T13:04:37;101460.53;;;17.76;55.59
60319;BME280;46163;52.306;5.634;2023-02-23T13:10:17;101457.97;;;17.81;55.25
60319;BME280;46163;52.306;5.634;2023-02-23T13:20:51;101456.09;;;17.93;55.43
60319;BME280;46163;52.306;5.634;2023-02-23T13:23:36;101462.31;;;17.94;55.41
60319;BME280;46163;52.306;5.634;2023-02-23T13:26:22;101459.59;;;17.94;55.57
60319;BME280;46163;52.306;5.634;2023-02-23T13:29:06;101459.38;;;17.95;55.45
60319;BME280;46163;52.306;5.634;2023-02-23T13:31:37;101456.44;;;17.97;55.11
60319;BME280;46163;52.306;5.634;2023-02-23T13:34:10;101464.31;;;17.98;55.31
60319;BME280;46163;52.306;5.634;2023-02-23T13:36:38;101458.91;;;17.98;55.43
60319;BME280;46163;52.306;5.634;2023-02-23T13:47:37;101457.50;;;17.96;55.42
60319;BME280;46163;52.306;5.634;2023-02-23T13:50:26;101455.03;;;17.94;55.54
60319;BME280;46163;52.306;5.634;2023-02-23T13:52:54;101463.13;;;17.94;55.35
60319;BME280;46163;52.306;5.634;2023-02-23T13:57:53;101463.59;;;17.91;55.68
60319;BME280;46163;52.306;5.634;2023-02-23T14:00:22;101467.34;;;17.90;55.86
60319;BME280;46163;52.306;5.634;2023-02-23T14:02:49;101460.53;;;17.88;56.06
60319;BME280;46163;52.306;5.634;2023-02-23T14:05:24;101465.59;;;17.84;55.85
60319;BME280;46163;52.306;5.634;2023-02-23T14:07:53;101460.69;;;17.81;55.91
60319;BME280;46163;52.306;5.634;2023-02-23T14:10:28;101460.06;;;17.79;56.02
60319;BME280;46163;52.306;5.634;2023-02-23T14:13:07;101452.59;;;17.81;56.05
60319;BME280;46163;52.306;5.634;2023-02-23T14:15:49;101458.19;;;17.79;56.22
60319;BME280;46163;52.306;5.634;2023-02-23T14:18:32;101465.69;;;17.77;55.91
60319;BME280;46163;52.306;5.634;2023-02-23T14:21:27;101461.84;;;17.73;56.07
60319;BME280;46163;52.306;5.634;2023-02-23T14:24:22;101468.47;;;17.71;56.03
60319;BME280;46163;52.306;5.634;2023-02-23T14:29:38;101466.91;;;17.63;56.51
60319;BME280;46163;52.306;5.634;2023-02-23T14:35:00;101464.13;;;17.58;57.13
60319;BME280;46163;52.306;5.634;2023-02-23T14:37:36;101463.53;;;17.56;57.45
60319;BME280;46163;52.306;5.634;2023-02-23T14:40:13;101471.38;;;17.58;57.67
60319;BME280;46163;52.306;5.634;2023-02-23T14:42:45;101469.75;;;17.57;57.43
60319;BME280;46163;52.306;5.634;2023-02-23T14:45:28;101467.88;;;17.57;57.57
60319;BME280;46163;52.306;5.634;2023-02-23T14:47:58;101461.66;;;17.57;57.53
60319;BME280;46163;52.306;5.634;2023-02-23T14:50:32;101463.53;;;17.56;57.54
60319;BME280;46163;52.306;5.634;2023-02-23T14:52:59;101463.75;;;17.55;57.79
60319;BME280;46163;52.306;5.634;2023-02-23T14:55:27;101463.88;;;17.60;57.35
60319;BME280;46163;52.306;5.634;2023-02-23T14:57:53;101462.47;;;17.57;57.80